PWSweather.com
Personal Weather Stations
Station Observations
133525
French Quarters West Seneca , West Seneca, NY 14224

French Quarters West Seneca West Seneca, NY 14224

Lat: 42.850058, Lon: -78.799754

Elevation: 603

Station Type: Davis Vantage Vue pro2

http://westsenecaweather.com/

Latest ConditionsUpdated 8:25:01 AM EST Friday, Feb 22, 2019
Currently Today's Max Today's Min Today's Average
Temperature 26.7°F-2.9°C 32.0°F0.0°C 23.8°F-4.6°C 27.1°F-2.7°C
Dew Point 24.6°F-4.1°C 25.6°F-3.6°C 21.7°F-5.7°C 23.4°F-4.8°C
Winds Calm Calm 4.6 mph -7.4 kmh - - 0.7 mph 1.1 kmh
Wind Gusts -- 6.9 mph11.1 kmh - -
Humidity 92% 93% 76% 86%
Pressure 30.43 in1030.5 mb 30.43 in1030.5 mb 30.26 in1024.7 mb -
Hour Temp Dew Point Humidity Winds Wind Gusts Pressure Precip Precip Rate Daily Precip Total
08:25 AM 26.7°F-2.9°C 24.6°F-4.1°C 92% Calm Calm -- 30.43 in1030.5 mb - 0.00 in0.0 mm 0.00 in0.0 mm
08:20 AM 26.3°F-3.2°C 24.6°F-4.1°C 93% Calm Calm -- 30.43 in1030.5 mb - 0.00 in0.0 mm 0.00 in0.0 mm
08:15 AM 26.0°F-3.3°C 24.2°F-4.3°C 93% Calm Calm -- 30.42 in1030.1 mb - 0.00 in0.0 mm 0.00 in0.0 mm
08:10 AM 25.7°F-3.5°C 24.0°F-4.4°C 93% Calm Calm -- 30.42 in1030.1 mb - 0.00 in0.0 mm 0.00 in0.0 mm
08:00 AM 25.3°F-3.7°C 23.5°F-4.7°C 93% Calm Calm -- 30.42 in1030.1 mb - 0.00 in0.0 mm 0.00 in0.0 mm
07:55 AM 24.9°F-3.9°C 23.2°F-4.9°C 93% Calm Calm -- 30.42 in1030.1 mb - 0.00 in0.0 mm 0.00 in0.0 mm
07:50 AM 24.5°F-4.2°C 22.8°F-5.1°C 93% Calm Calm -- 30.42 in1030.1 mb - 0.00 in0.0 mm 0.00 in0.0 mm
07:45 AM 24.1°F-4.4°C 22.4°F-5.3°C 93% Calm Calm -- 30.41 in1029.8 mb - 0.00 in0.0 mm 0.00 in0.0 mm
07:40 AM 23.9°F-4.5°C 21.9°F-5.6°C 92% Calm Calm -- 30.41 in1029.8 mb - 0.00 in0.0 mm 0.00 in0.0 mm
07:35 AM 23.8°F-4.6°C 21.8°F-5.7°C 92% Calm Calm -- 30.41 in1029.8 mb - 0.00 in0.0 mm 0.00 in0.0 mm
07:30 AM 23.8°F-4.6°C 21.8°F-5.7°C 92% Calm Calm -- 30.41 in1029.8 mb - 0.00 in0.0 mm 0.00 in0.0 mm
07:25 AM 23.8°F-4.6°C 21.8°F-5.7°C 92% Calm Calm -- 30.41 in1029.8 mb - 0.00 in0.0 mm 0.00 in0.0 mm
07:20 AM 23.8°F-4.6°C 21.8°F-5.7°C 92% Calm Calm -- 30.41 in1029.8 mb - 0.00 in0.0 mm 0.00 in0.0 mm
07:15 AM 23.9°F-4.5°C 21.7°F-5.7°C 91% Calm Calm -- 30.40 in1029.5 mb - 0.00 in0.0 mm 0.00 in0.0 mm
07:10 AM 24.0°F-4.4°C 22.1°F-5.5°C 92% Calm Calm -- 30.40 in1029.5 mb - 0.00 in0.0 mm 0.00 in0.0 mm
07:00 AM 24.5°F-4.2°C 22.2°F-5.4°C 91% Calm Calm -- 30.39 in1029.1 mb - 0.00 in0.0 mm 0.00 in0.0 mm
06:55 AM 24.7°F-4.1°C 22.7°F-5.2°C 92% Calm Calm -- 30.39 in1029.1 mb - 0.00 in0.0 mm 0.00 in0.0 mm
06:50 AM 24.9°F-3.9°C 22.9°F-5.1°C 92% Calm Calm -- 30.39 in1029.1 mb - 0.00 in0.0 mm 0.00 in0.0 mm
06:45 AM 25.0°F-3.9°C 23.0°F-5.0°C 92% Calm Calm -- 30.39 in1029.1 mb - 0.00 in0.0 mm 0.00 in0.0 mm
06:40 AM 25.1°F-3.8°C 23.1°F-4.9°C 92% Calm Calm -- 30.39 in1029.1 mb - 0.00 in0.0 mm 0.00 in0.0 mm
06:35 AM 25.1°F-3.8°C 23.1°F-4.9°C 92% Calm Calm -- 30.38 in1028.8 mb - 0.00 in0.0 mm 0.00 in0.0 mm
06:30 AM 25.0°F-3.9°C 23.0°F-5.0°C 92% Calm Calm -- 30.38 in1028.8 mb - 0.00 in0.0 mm 0.00 in0.0 mm
06:25 AM 25.0°F-3.9°C 23.0°F-5.0°C 92% Calm Calm -- 30.38 in1028.8 mb - 0.00 in0.0 mm 0.00 in0.0 mm
06:20 AM 24.9°F-3.9°C 22.9°F-5.1°C 92% Calm Calm -- 30.38 in1028.8 mb - 0.00 in0.0 mm 0.00 in0.0 mm
06:15 AM 24.9°F-3.9°C 22.9°F-5.1°C 92% Calm Calm -- 30.38 in1028.8 mb - 0.00 in0.0 mm 0.00 in0.0 mm
06:10 AM 24.9°F-3.9°C 22.9°F-5.1°C 92% Calm Calm -- 30.38 in1028.8 mb - 0.00 in0.0 mm 0.00 in0.0 mm
06:00 AM 25.0°F-3.9°C 23.0°F-5.0°C 92% Calm Calm -- 30.37 in1028.4 mb - 0.00 in0.0 mm 0.00 in0.0 mm
05:55 AM 25.0°F-3.9°C 23.0°F-5.0°C 92% Calm Calm -- 30.37 in1028.4 mb - 0.00 in0.0 mm 0.00 in0.0 mm
05:50 AM 24.9°F-3.9°C 22.9°F-5.1°C 92% Calm Calm -- 30.37 in1028.4 mb - 0.00 in0.0 mm 0.00 in0.0 mm
05:45 AM 24.9°F-3.9°C 22.9°F-5.1°C 92% Calm Calm -- 30.36 in1028.1 mb - 0.00 in0.0 mm 0.00 in0.0 mm
05:40 AM 24.8°F-4.0°C 22.8°F-5.1°C 92% Calm Calm -- 30.36 in1028.1 mb - 0.00 in0.0 mm 0.00 in0.0 mm
05:35 AM 24.7°F-4.1°C 22.4°F-5.3°C 91% Calm Calm -- 30.35 in1027.8 mb - 0.00 in0.0 mm 0.00 in0.0 mm
05:30 AM 24.6°F-4.1°C 22.4°F-5.3°C 91% Calm Calm -- 30.35 in1027.8 mb - 0.00 in0.0 mm 0.00 in0.0 mm
05:25 AM 24.7°F-4.1°C 22.4°F-5.3°C 91% Calm Calm -- 30.35 in1027.8 mb - 0.00 in0.0 mm 0.00 in0.0 mm
05:20 AM 24.8°F-4.0°C 22.5°F-5.3°C 91% Calm Calm -- 30.35 in1027.8 mb - 0.00 in0.0 mm 0.00 in0.0 mm
05:15 AM 24.9°F-3.9°C 22.4°F-5.3°C 90% Calm Calm -- 30.35 in1027.8 mb - 0.00 in0.0 mm 0.00 in0.0 mm
05:10 AM 25.1°F-3.8°C 22.6°F-5.2°C 90% Calm Calm -- 30.35 in1027.8 mb - 0.00 in0.0 mm 0.00 in0.0 mm
04:55 AM 25.4°F-3.7°C 22.9°F-5.1°C 90% Calm Calm -- 30.34 in1027.4 mb - 0.00 in0.0 mm 0.00 in0.0 mm
04:50 AM 25.3°F-3.7°C 22.8°F-5.1°C 90% Calm Calm -- 30.34 in1027.4 mb - 0.00 in0.0 mm 0.00 in0.0 mm
04:45 AM 25.4°F-3.7°C 22.9°F-5.1°C 90% Calm Calm -- 30.33 in1027.1 mb - 0.00 in0.0 mm 0.00 in0.0 mm
04:35 AM 25.4°F-3.7°C 22.9°F-5.1°C 90% Calm Calm -- 30.33 in1027.1 mb - 0.00 in0.0 mm 0.00 in0.0 mm
04:25 AM 25.6°F-3.6°C 22.8°F-5.1°C 89% Calm Calm -- 30.33 in1027.1 mb - 0.00 in0.0 mm 0.00 in0.0 mm
04:20 AM 25.8°F-3.4°C 22.8°F-5.1°C 88% Calm Calm -- 30.33 in1027.1 mb - 0.00 in0.0 mm 0.00 in0.0 mm
04:15 AM 26.1°F-3.3°C 23.0°F-5.0°C 88% Calm Calm -- 30.32 in1026.8 mb - 0.00 in0.0 mm 0.00 in0.0 mm
04:10 AM 26.3°F-3.2°C 23.2°F-4.9°C 88% 1.2 mph NNW1.9 kmh NNW 2.3 mph3.7 kmh 30.33 in1027.1 mb - 0.00 in0.0 mm 0.00 in0.0 mm
04:00 AM 26.7°F-2.9°C 23.6°F-4.7°C 88% Calm Calm -- 30.32 in1026.8 mb - 0.00 in0.0 mm 0.00 in0.0 mm
03:55 AM 26.9°F-2.8°C 23.8°F-4.6°C 88% Calm Calm -- 30.32 in1026.8 mb - 0.00 in0.0 mm 0.00 in0.0 mm
03:50 AM 27.1°F-2.7°C 23.7°F-4.6°C 87% Calm Calm 1.2 mph1.9 kmh 30.32 in1026.8 mb - 0.00 in0.0 mm 0.00 in0.0 mm
03:45 AM 27.1°F-2.7°C 23.7°F-4.6°C 87% 1.2 mph NNW1.9 kmh NNW 2.3 mph3.7 kmh 30.32 in1026.8 mb - 0.00 in0.0 mm 0.00 in0.0 mm
03:40 AM 27.0°F-2.8°C 23.6°F-4.7°C 87% 1.2 mph NE1.9 kmh NE 3.5 mph5.6 kmh 30.32 in1026.8 mb - 0.00 in0.0 mm 0.00 in0.0 mm
03:35 AM 27.0°F-2.8°C 23.4°F-4.8°C 86% 1.2 mph ENE1.9 kmh ENE 3.5 mph5.6 kmh 30.31 in1026.4 mb - 0.00 in0.0 mm 0.00 in0.0 mm
03:30 AM 27.0°F-2.8°C 23.4°F-4.8°C 86% 2.3 mph ENE3.7 kmh ENE 3.5 mph5.6 kmh 30.31 in1026.4 mb - 0.00 in0.0 mm 0.00 in0.0 mm
03:25 AM 27.0°F-2.8°C 23.1°F-4.9°C 85% 1.2 mph ENE1.9 kmh ENE 2.3 mph3.7 kmh 30.31 in1026.4 mb - 0.00 in0.0 mm 0.00 in0.0 mm
03:20 AM 27.0°F-2.8°C 23.1°F-4.9°C 85% 1.2 mph ENE1.9 kmh ENE 2.3 mph3.7 kmh 30.31 in1026.4 mb - 0.00 in0.0 mm 0.00 in0.0 mm
03:15 AM 27.1°F-2.7°C 22.9°F-5.1°C 84% 1.2 mph ENE1.9 kmh ENE 2.3 mph3.7 kmh 30.31 in1026.4 mb - 0.00 in0.0 mm 0.00 in0.0 mm
03:10 AM 27.2°F-2.7°C 23.0°F-5.0°C 84% 1.2 mph ENE1.9 kmh ENE 2.3 mph3.7 kmh 30.30 in1026.1 mb - 0.00 in0.0 mm 0.00 in0.0 mm
03:00 AM 27.4°F-2.6°C 22.9°F-5.1°C 83% Calm Calm -- 30.30 in1026.1 mb - 0.00 in0.0 mm 0.00 in0.0 mm
02:55 AM 27.6°F-2.4°C 23.1°F-4.9°C 83% Calm Calm -- 30.30 in1026.1 mb - 0.00 in0.0 mm 0.00 in0.0 mm
02:50 AM 27.8°F-2.3°C 23.0°F-5.0°C 82% Calm Calm -- 30.30 in1026.1 mb - 0.00 in0.0 mm 0.00 in0.0 mm
02:45 AM 28.0°F-2.2°C 23.2°F-4.9°C 82% Calm Calm -- 30.30 in1026.1 mb - 0.00 in0.0 mm 0.00 in0.0 mm
02:40 AM 28.1°F-2.2°C 23.1°F-4.9°C 81% 1.2 mph ENE1.9 kmh ENE 2.3 mph3.7 kmh 30.30 in1026.1 mb - 0.00 in0.0 mm 0.00 in0.0 mm
02:35 AM 28.4°F-2.0°C 23.1°F-4.9°C 80% 1.2 mph ENE1.9 kmh ENE 1.2 mph1.9 kmh 30.30 in1026.1 mb - 0.00 in0.0 mm 0.00 in0.0 mm
02:30 AM 28.8°F-1.8°C 23.4°F-4.8°C 80% Calm Calm 1.2 mph1.9 kmh 30.29 in1025.7 mb - 0.00 in0.0 mm 0.00 in0.0 mm
02:25 AM 29.0°F-1.7°C 23.3°F-4.8°C 79% Calm Calm 1.2 mph1.9 kmh 30.29 in1025.7 mb - 0.00 in0.0 mm 0.00 in0.0 mm
02:20 AM 29.3°F-1.5°C 23.6°F-4.7°C 79% Calm Calm 1.2 mph1.9 kmh 30.29 in1025.7 mb - 0.00 in0.0 mm 0.00 in0.0 mm
02:15 AM 29.6°F-1.3°C 23.6°F-4.7°C 78% 1.2 mph ENE1.9 kmh ENE 1.2 mph1.9 kmh 30.29 in1025.7 mb - 0.00 in0.0 mm 0.00 in0.0 mm
02:10 AM 29.8°F-1.2°C 23.7°F-4.6°C 78% 1.2 mph ENE1.9 kmh ENE 3.5 mph5.6 kmh 30.29 in1025.7 mb - 0.00 in0.0 mm 0.00 in0.0 mm
02:00 AM 30.0°F-1.1°C 24.0°F-4.4°C 78% Calm Calm -- 30.29 in1025.7 mb - 0.00 in0.0 mm 0.00 in0.0 mm
01:55 AM 30.1°F-1.1°C 24.1°F-4.4°C 78% 2.3 mph ENE3.7 kmh ENE 3.5 mph5.6 kmh 30.28 in1025.4 mb - 0.00 in0.0 mm 0.00 in0.0 mm
01:50 AM 30.1°F-1.1°C 24.1°F-4.4°C 78% 1.2 mph ENE1.9 kmh ENE 3.5 mph5.6 kmh 30.29 in1025.7 mb - 0.00 in0.0 mm 0.00 in0.0 mm
01:45 AM 30.2°F-1.0°C 24.2°F-4.3°C 78% 1.2 mph ENE1.9 kmh ENE 2.3 mph3.7 kmh 30.28 in1025.4 mb - 0.00 in0.0 mm 0.00 in0.0 mm
01:40 AM 30.3°F-0.9°C 24.0°F-4.4°C 77% 1.2 mph ENE1.9 kmh ENE 2.3 mph3.7 kmh 30.28 in1025.4 mb - 0.00 in0.0 mm 0.00 in0.0 mm
01:35 AM 30.4°F-0.9°C 24.1°F-4.4°C 77% 2.3 mph ENE3.7 kmh ENE 3.5 mph5.6 kmh 30.28 in1025.4 mb - 0.00 in0.0 mm 0.00 in0.0 mm
01:30 AM 30.5°F-0.8°C 24.1°F-4.4°C 77% 2.3 mph ENE3.7 kmh ENE 3.5 mph5.6 kmh 30.27 in1025.1 mb - 0.00 in0.0 mm 0.00 in0.0 mm
01:20 AM 30.6°F-0.8°C 24.2°F-4.3°C 77% 1.2 mph NE1.9 kmh NE 2.3 mph3.7 kmh 30.27 in1025.1 mb - 0.00 in0.0 mm 0.00 in0.0 mm
01:15 AM 30.6°F-0.8°C 24.2°F-4.3°C 77% 2.3 mph NE3.7 kmh NE 4.6 mph7.4 kmh 30.27 in1025.1 mb - 0.00 in0.0 mm 0.00 in0.0 mm
01:10 AM 30.6°F-0.8°C 23.9°F-4.5°C 76% 2.3 mph E3.7 kmh E 3.5 mph5.6 kmh 30.27 in1025.1 mb - 0.00 in0.0 mm 0.00 in0.0 mm
01:00 AM 30.8°F-0.7°C 24.1°F-4.4°C 76% 2.3 mph E3.7 kmh E 3.5 mph5.6 kmh 30.27 in1025.1 mb - 0.00 in0.0 mm 0.00 in0.0 mm
12:55 AM 31.0°F-0.6°C 24.3°F-4.3°C 76% 2.3 mph E3.7 kmh E 3.5 mph5.6 kmh 30.27 in1025.1 mb - 0.00 in0.0 mm 0.00 in0.0 mm
12:50 AM 31.1°F-0.5°C 24.4°F-4.2°C 76% 3.5 mph E5.6 kmh E 3.5 mph5.6 kmh 30.27 in1025.1 mb - 0.00 in0.0 mm 0.00 in0.0 mm
12:45 AM 31.2°F-0.4°C 24.5°F-4.2°C 76% 1.2 mph ENE1.9 kmh ENE 3.5 mph5.6 kmh 30.27 in1025.1 mb - 0.00 in0.0 mm 0.00 in0.0 mm
12:40 AM 31.4°F-0.3°C 24.7°F-4.1°C 76% 2.3 mph E3.7 kmh E 3.5 mph5.6 kmh 30.27 in1025.1 mb - 0.00 in0.0 mm 0.00 in0.0 mm
12:35 AM 31.5°F-0.3°C 24.8°F-4.0°C 76% 1.2 mph E1.9 kmh E 3.5 mph5.6 kmh 30.27 in1025.1 mb - 0.00 in0.0 mm 0.00 in0.0 mm
12:30 AM 31.7°F-0.2°C 25.0°F-3.9°C 76% 2.3 mph ENE3.7 kmh ENE 3.5 mph5.6 kmh 30.27 in1025.1 mb - 0.00 in0.0 mm 0.00 in0.0 mm
12:25 AM 31.8°F-0.1°C 25.1°F-3.8°C 76% 4.6 mph ENE7.4 kmh ENE 4.6 mph7.4 kmh 30.26 in1024.7 mb - 0.00 in0.0 mm 0.00 in0.0 mm
12:20 AM 31.9°F-0.1°C 25.2°F-3.8°C 76% 1.2 mph E1.9 kmh E 3.5 mph5.6 kmh 30.26 in1024.7 mb - 0.00 in0.0 mm 0.00 in0.0 mm
12:15 AM 31.9°F-0.1°C 25.5°F-3.6°C 77% 4.6 mph E7.4 kmh E 6.9 mph11.1 kmh 30.26 in1024.7 mb - 0.00 in0.0 mm 0.00 in0.0 mm
12:10 AM 32.0°F0.0°C 25.6°F-3.6°C 77% 2.3 mph NE3.7 kmh NE 3.5 mph5.6 kmh 30.26 in1024.7 mb - 0.00 in0.0 mm 0.00 in0.0 mm
12:00 AM 32.0°F0.0°C 25.6°F-3.6°C 77% 4.6 mph ENE7.4 kmh ENE 5.8 mph9.3 kmh 30.26 in1024.7 mb - 0.00 in0.0 mm 0.00 in0.0 mm